createdAt,value
2022-12-12T00:00:16.477Z,-1.49
2022-12-12T00:01:16.943Z,-1.52
2022-12-12T00:02:17.186Z,-1.53
2022-12-12T00:03:16.993Z,-1.52
2022-12-12T00:04:16.706Z,-1.53
2022-12-12T00:05:17.166Z,-1.53
2022-12-12T00:06:16.673Z,-1.55
2022-12-12T00:07:17.151Z,-1.58
2022-12-12T00:08:16.710Z,-1.56
2022-12-12T00:09:16.369Z,-1.52
2022-12-12T00:10:16.923Z,-1.51
2022-12-12T00:11:16.449Z,-1.53
2022-12-12T00:12:16.381Z,-1.53
2022-12-12T00:13:16.863Z,-1.58
2022-12-12T00:14:16.332Z,-1.60
2022-12-12T00:15:16.784Z,-1.62
2022-12-12T00:16:17.337Z,-1.58
2022-12-12T00:17:16.991Z,-1.62
2022-12-12T00:18:16.467Z,-1.63
2022-12-12T00:19:16.948Z,-1.62
2022-12-12T00:20:16.444Z,-1.60
2022-12-12T00:21:16.944Z,-1.56
2022-12-12T00:22:16.930Z,-1.55
2022-12-12T00:23:16.419Z,-1.46
2022-12-12T00:24:16.905Z,-1.44
2022-12-12T00:25:16.399Z,-1.45
2022-12-12T00:26:16.893Z,-1.48
2022-12-12T00:27:16.368Z,-1.48
2022-12-12T00:28:16.833Z,-1.46
2022-12-12T00:29:16.305Z,-1.45
2022-12-12T00:30:16.805Z,-1.49
2022-12-12T00:31:17.354Z,-1.49
2022-12-12T00:32:16.479Z,-1.53
2022-12-12T00:33:16.951Z,-1.53
2022-12-12T00:34:16.445Z,-1.53
2022-12-12T00:35:16.926Z,-1.55
2022-12-12T00:36:16.427Z,-1.56
2022-12-12T00:37:16.914Z,-1.58
2022-12-12T00:38:16.399Z,-1.53
2022-12-12T00:39:18.504Z,-1.52
2022-12-12T00:40:17.089Z,-1.56
2022-12-12T00:41:16.584Z,-1.56
2022-12-12T00:42:17.201Z,-1.58
2022-12-12T00:43:16.690Z,-1.56
2022-12-12T00:44:17.166Z,-1.56
2022-12-12T00:45:16.670Z,-1.59
2022-12-12T00:46:17.193Z,-1.58
2022-12-12T00:47:16.780Z,-1.62
2022-12-12T00:48:17.286Z,-1.63
2022-12-12T00:49:16.789Z,-1.64
2022-12-12T00:50:17.294Z,-1.59
2022-12-12T00:51:16.769Z,-1.59
2022-12-12T00:52:16.784Z,-1.58
2022-12-12T00:53:17.289Z,-1.60
2022-12-12T00:54:16.811Z,-1.59
2022-12-12T00:55:17.288Z,-1.60
2022-12-12T00:56:16.802Z,-1.60
2022-12-12T00:57:17.320Z,-1.60
2022-12-12T00:58:16.808Z,-1.60
2022-12-12T00:59:17.298Z,-1.63
2022-12-12T01:00:16.792Z,-1.60
2022-12-12T01:01:17.404Z,-1.63
2022-12-12T01:02:16.916Z,-1.63
2022-12-12T01:03:16.488Z,-1.63
2022-12-12T01:04:17.026Z,-1.66
2022-12-12T01:05:16.505Z,-1.67
2022-12-12T01:06:17.005Z,-1.64
2022-12-12T01:07:16.475Z,-1.62
2022-12-12T01:08:17.048Z,-1.60
2022-12-12T01:09:16.592Z,-1.62
2022-12-12T01:10:17.103Z,-1.53
2022-12-12T01:11:16.581Z,-1.48
2022-12-12T01:12:16.674Z,-1.52
2022-12-12T01:13:17.208Z,-1.48
2022-12-12T01:14:16.697Z,-1.44
2022-12-12T01:15:17.205Z,-1.46
2022-12-12T01:16:16.793Z,-1.49
2022-12-12T01:17:16.371Z,-1.49
2022-12-12T01:18:16.850Z,-1.52
2022-12-12T01:19:16.306Z,-1.53
2022-12-12T01:20:16.779Z,-1.53
2022-12-12T01:21:17.259Z,-1.52
2022-12-12T01:22:16.825Z,-1.53
2022-12-12T01:23:16.354Z,-1.55
2022-12-12T01:24:16.819Z,-1.51
2022-12-12T01:25:16.355Z,-1.55
2022-12-12T01:26:16.822Z,-1.55
2022-12-12T01:27:16.330Z,-1.49
2022-12-12T01:28:16.835Z,-1.52
2022-12-12T01:29:16.308Z,-1.51
2022-12-12T01:30:16.794Z,-1.46
2022-12-12T01:31:17.296Z,-1.45
2022-12-12T01:32:16.830Z,-1.46
2022-12-12T01:33:16.332Z,-1.49
2022-12-12T01:34:16.810Z,-1.51
2022-12-12T01:35:17.292Z,-1.55
2022-12-12T01:36:16.837Z,-1.55
2022-12-12T01:37:16.326Z,-1.56
2022-12-12T01:38:16.831Z,-1.51
2022-12-12T01:39:16.307Z,-1.49
2022-12-12T01:40:16.797Z,-1.52
2022-12-12T01:41:17.311Z,-1.49
2022-12-12T01:42:16.361Z,-1.51
2022-12-12T01:43:16.826Z,-1.49
2022-12-12T01:44:17.280Z,-1.51
2022-12-12T01:45:16.771Z,-1.52
2022-12-12T01:46:17.279Z,-1.53
2022-12-12T01:47:16.773Z,-1.49
2022-12-12T01:48:17.268Z,-1.51
2022-12-12T01:49:16.733Z,-1.52
2022-12-12T01:50:17.248Z,-1.52
2022-12-12T01:51:16.717Z,-1.52
2022-12-12T01:52:17.015Z,-1.51
2022-12-12T01:53:16.495Z,-1.52
2022-12-12T01:54:16.999Z,-1.53
2022-12-12T01:55:16.474Z,-1.51
2022-12-12T01:56:16.975Z,-1.52
2022-12-12T01:57:16.448Z,-1.55
2022-12-12T01:58:16.928Z,-1.51
2022-12-12T01:59:16.399Z,-1.53
2022-12-12T02:00:16.861Z,-1.55
2022-12-12T02:01:16.344Z,-1.55
2022-12-12T02:02:17.276Z,-1.53
2022-12-12T02:03:16.854Z,-1.52
2022-12-12T02:04:16.318Z,-1.49
2022-12-12T02:05:16.806Z,-1.52
2022-12-12T02:06:17.326Z,-1.49
2022-12-12T02:07:16.814Z,-1.51
2022-12-12T02:08:17.408Z,-1.49
2022-12-12T02:09:17.007Z,-1.53
2022-12-12T02:10:16.527Z,-1.52
2022-12-12T02:11:16.979Z,-1.52
2022-12-12T02:12:16.984Z,-1.52
2022-12-12T02:13:16.447Z,-1.52
2022-12-12T02:14:16.922Z,-1.55
2022-12-12T02:15:16.391Z,-1.51
2022-12-12T02:16:16.907Z,-1.48
2022-12-12T02:17:16.462Z,-1.51
2022-12-12T02:18:16.938Z,-1.51
2022-12-12T02:19:16.445Z,-1.46
2022-12-12T02:20:16.938Z,-1.48
2022-12-12T02:21:16.437Z,-1.48
2022-12-12T02:22:17.262Z,-1.48
2022-12-12T02:23:16.755Z,-1.52
2022-12-12T02:24:20.464Z,-1.53
2022-12-12T02:25:16.439Z,-1.51
2022-12-12T02:26:16.898Z,-1.51
2022-12-12T02:27:16.419Z,-1.51
2022-12-12T02:28:16.885Z,-1.55
2022-12-12T02:29:16.422Z,-1.56
2022-12-12T02:30:16.890Z,-1.56
2022-12-12T02:31:16.476Z,-1.60
2022-12-12T02:32:17.142Z,-1.59
2022-12-12T02:33:16.623Z,-1.56
2022-12-12T02:34:17.115Z,-1.52
2022-12-12T02:35:16.583Z,-1.51
2022-12-12T02:36:17.147Z,-1.52
2022-12-12T02:37:16.615Z,-1.53
2022-12-12T02:38:17.069Z,-1.52
2022-12-12T02:39:16.517Z,-1.52
2022-12-12T02:40:17.023Z,-1.55
2022-12-12T02:41:16.523Z,-1.55
2022-12-12T02:42:16.325Z,-1.60
2022-12-12T02:43:16.810Z,-1.62
2022-12-12T02:44:16.339Z,-1.69
2022-12-12T02:45:16.831Z,-1.76
2022-12-12T02:46:16.370Z,-1.72
2022-12-12T02:47:16.960Z,-1.67
2022-12-12T02:48:16.442Z,-1.67
2022-12-12T02:49:16.902Z,-1.63
2022-12-12T02:50:16.360Z,-1.66
2022-12-12T02:51:16.834Z,-1.66
2022-12-12T02:52:16.703Z,-1.63
2022-12-12T02:53:17.175Z,-1.60
2022-12-12T02:54:16.666Z,-1.59
2022-12-12T02:55:17.191Z,-1.63
2022-12-12T02:56:16.693Z,-1.60
2022-12-12T02:57:17.186Z,-1.58
2022-12-12T02:58:16.675Z,-1.56
2022-12-12T02:59:17.247Z,-1.55
2022-12-12T03:00:16.756Z,-1.58
2022-12-12T03:01:17.269Z,-1.52
2022-12-12T03:02:17.082Z,-1.60
2022-12-12T03:03:16.673Z,-1.69
2022-12-12T03:04:17.186Z,-1.70
2022-12-12T03:05:16.691Z,-1.67
2022-12-12T03:06:17.205Z,-1.69
2022-12-12T03:07:16.647Z,-1.67
2022-12-12T03:08:17.196Z,-1.69
2022-12-12T03:09:16.851Z,-1.63
2022-12-12T03:10:16.335Z,-1.69
2022-12-12T03:11:16.803Z,-1.66
2022-12-12T03:12:16.711Z,-1.62
2022-12-12T03:13:17.183Z,-1.58
2022-12-12T03:14:16.686Z,-1.62
2022-12-12T03:15:17.186Z,-1.63
2022-12-12T03:16:16.737Z,-1.58
2022-12-12T03:17:17.314Z,-1.60
2022-12-12T03:18:17.706Z,-1.62
2022-12-12T03:19:16.340Z,-1.60
2022-12-12T03:20:16.822Z,-1.66
2022-12-12T03:21:17.294Z,-1.66
2022-12-12T03:22:16.818Z,-1.64
2022-12-12T03:23:16.327Z,-1.63
2022-12-12T03:24:16.842Z,-1.59
2022-12-12T03:25:16.359Z,-1.64
2022-12-12T03:26:16.833Z,-1.67
2022-12-12T03:27:16.322Z,-1.72
2022-12-12T03:28:16.812Z,-1.73
2022-12-12T03:29:17.278Z,-1.73
2022-12-12T03:30:16.780Z,-1.70
2022-12-12T03:31:17.378Z,-1.73
2022-12-12T03:32:16.972Z,-1.77
2022-12-12T03:33:16.525Z,-1.80
2022-12-12T03:34:17.019Z,-1.79
2022-12-12T03:35:16.516Z,-1.69
2022-12-12T03:36:17.036Z,-1.69
2022-12-12T03:37:16.539Z,-1.70
2022-12-12T03:38:17.021Z,-1.73
2022-12-12T03:39:16.504Z,-1.76
2022-12-12T03:40:16.965Z,-1.81
2022-12-12T03:41:16.425Z,-1.87
2022-12-12T03:42:16.447Z,-1.88
2022-12-12T03:43:16.909Z,-1.84
2022-12-12T03:44:16.390Z,-1.83
2022-12-12T03:45:16.872Z,-1.80
2022-12-12T03:46:16.449Z,-1.74
2022-12-12T03:47:17.044Z,-1.74
2022-12-12T03:48:16.564Z,-1.72
2022-12-12T03:49:17.038Z,-1.74
2022-12-12T03:50:16.534Z,-1.70
2022-12-12T03:51:17.022Z,-1.70
2022-12-12T03:52:16.853Z,-1.74
2022-12-12T03:53:16.395Z,-1.64
2022-12-12T03:54:16.869Z,-1.60
2022-12-12T03:55:17.116Z,-1.67
2022-12-12T03:56:16.636Z,-1.66
2022-12-12T03:57:17.094Z,-1.64
2022-12-12T03:58:16.555Z,-1.62
2022-12-12T03:59:17.032Z,-1.58
2022-12-12T04:00:16.533Z,-1.72
2022-12-12T04:01:17.054Z,-1.80
2022-12-12T04:02:16.664Z,-1.88
2022-12-12T04:03:17.397Z,-1.87
2022-12-12T04:04:16.872Z,-1.79
2022-12-12T04:05:16.372Z,-1.79
2022-12-12T04:06:16.878Z,-1.76
2022-12-12T04:07:16.363Z,-1.79
2022-12-12T04:08:16.885Z,-1.79
2022-12-12T04:09:16.452Z,-1.79
2022-12-12T04:10:16.941Z,-1.81
2022-12-12T04:11:16.407Z,-1.87
2022-12-12T04:12:17.077Z,-1.87
2022-12-12T04:13:16.585Z,-1.90
2022-12-12T04:14:17.052Z,-1.88
2022-12-12T04:15:16.554Z,-1.87
2022-12-12T04:16:17.078Z,-1.88
2022-12-12T04:17:16.629Z,-1.88
2022-12-12T04:18:17.179Z,-1.88
2022-12-12T04:19:16.627Z,-1.87
2022-12-12T04:20:17.153Z,-1.87
2022-12-12T04:21:16.795Z,-1.84
2022-12-12T04:22:19.688Z,-1.83
2022-12-12T04:23:16.452Z,-1.83
2022-12-12T04:24:16.956Z,-1.87
2022-12-12T04:25:16.464Z,-1.92
2022-12-12T04:26:17.211Z,-1.91
2022-12-12T04:27:16.701Z,-1.94
2022-12-12T04:28:17.236Z,-1.95
2022-12-12T04:29:16.708Z,-1.92
2022-12-12T04:30:17.187Z,-1.91
2022-12-12T04:31:16.696Z,-1.87
2022-12-12T04:32:16.596Z,-1.88
2022-12-12T04:33:17.070Z,-1.91
2022-12-12T04:34:16.519Z,-1.91
2022-12-12T04:35:16.992Z,-1.91
2022-12-12T04:36:16.480Z,-1.91
2022-12-12T04:37:16.985Z,-1.87
2022-12-12T04:38:16.456Z,-1.94
2022-12-12T04:39:16.976Z,-2.00
2022-12-12T04:40:16.467Z,-1.95
2022-12-12T04:41:17.014Z,-1.94
2022-12-12T04:42:16.661Z,-1.92
2022-12-12T04:43:17.180Z,-1.92
2022-12-12T04:44:16.662Z,-1.81
2022-12-12T04:45:17.155Z,-1.86
2022-12-12T04:46:16.658Z,-1.83
2022-12-12T04:47:17.206Z,-1.84
2022-12-12T04:48:16.662Z,-1.88
2022-12-12T04:49:17.180Z,-1.90
2022-12-12T04:50:16.659Z,-1.88
2022-12-12T04:51:17.176Z,-1.90
2022-12-12T04:52:17.179Z,-1.92
2022-12-12T04:53:18.524Z,-1.92
2022-12-12T04:54:16.370Z,-1.88
2022-12-12T04:55:16.863Z,-1.79
2022-12-12T04:56:16.384Z,-1.83
2022-12-12T04:57:16.860Z,-1.86
2022-12-12T04:58:16.340Z,-1.86
2022-12-12T04:59:16.865Z,-1.91
2022-12-12T05:00:16.373Z,-1.92
2022-12-12T05:01:16.898Z,-1.91
2022-12-12T05:02:16.406Z,-1.91
2022-12-12T05:03:16.987Z,-1.90
2022-12-12T05:04:16.480Z,-1.87
2022-12-12T05:05:16.987Z,-1.90
2022-12-12T05:06:16.486Z,-1.90
2022-12-12T05:07:16.945Z,-1.91
2022-12-12T05:08:16.468Z,-1.94
2022-12-12T05:09:17.021Z,-1.95
2022-12-12T05:10:16.500Z,-1.94
2022-12-12T05:11:16.983Z,-1.90
2022-12-12T05:12:16.635Z,-1.91
2022-12-12T05:13:17.114Z,-1.91
2022-12-12T05:14:16.572Z,-1.91
2022-12-12T05:15:17.052Z,-1.97
2022-12-12T05:16:16.549Z,-1.98
2022-12-12T05:17:17.091Z,-2.04
2022-12-12T05:18:16.613Z,-2.14
2022-12-12T05:19:17.081Z,-2.19
2022-12-12T05:20:16.575Z,-2.26
2022-12-12T05:21:17.110Z,-2.31
2022-12-12T05:22:17.153Z,-2.32
2022-12-12T05:23:16.626Z,-2.32
2022-12-12T05:24:17.104Z,-2.31
2022-12-12T05:25:16.576Z,-2.29
2022-12-12T05:26:17.039Z,-2.29
2022-12-12T05:27:16.519Z,-2.34
2022-12-12T05:28:16.983Z,-2.38
2022-12-12T05:29:16.451Z,-2.41
2022-12-12T05:30:16.941Z,-2.39
2022-12-12T05:31:16.462Z,-2.45
2022-12-12T05:32:16.433Z,-2.49
2022-12-12T05:33:16.905Z,-2.50
2022-12-12T05:34:16.381Z,-2.52
2022-12-12T05:35:16.845Z,-2.56
2022-12-12T05:36:16.344Z,-2.57
2022-12-12T05:37:16.830Z,-2.62
2022-12-12T05:38:16.312Z,-2.63
2022-12-12T05:39:16.766Z,-2.69
2022-12-12T05:40:17.243Z,-2.73
2022-12-12T05:41:16.710Z,-2.76
2022-12-12T05:42:17.261Z,-2.77
2022-12-12T05:43:16.724Z,-2.77
2022-12-12T05:44:17.245Z,-2.81
2022-12-12T05:45:16.727Z,-2.84
2022-12-12T05:46:17.269Z,-2.90
2022-12-12T05:47:16.863Z,-2.90
2022-12-12T05:48:19.616Z,-2.94
2022-12-12T05:49:17.135Z,-2.99
2022-12-12T05:50:16.620Z,-2.98
2022-12-12T05:51:17.131Z,-3.05
2022-12-12T05:52:16.860Z,-3.12
2022-12-12T05:53:16.339Z,-3.12
2022-12-12T05:54:16.797Z,-3.19
2022-12-12T05:55:17.268Z,-3.25
2022-12-12T05:56:16.739Z,-3.29
2022-12-12T05:57:17.260Z,-3.32
2022-12-12T05:58:16.758Z,-3.32
2022-12-12T05:59:17.246Z,-3.33
2022-12-12T06:00:16.762Z,-3.33
2022-12-12T06:01:17.237Z,-3.33
2022-12-12T06:02:16.924Z,-3.39
2022-12-12T06:03:16.599Z,-3.40
2022-12-12T06:04:17.085Z,-3.40
2022-12-12T06:05:16.749Z,-3.44
2022-12-12T06:06:17.239Z,-3.46
2022-12-12T06:07:16.704Z,-3.48
2022-12-12T06:08:19.821Z,-3.53
2022-12-12T06:09:16.488Z,-3.54
2022-12-12T06:10:16.993Z,-3.55
2022-12-12T06:11:16.466Z,-3.58
2022-12-12T06:12:16.488Z,-3.60
2022-12-12T06:13:16.978Z,-3.60
2022-12-12T06:14:16.446Z,-3.60
2022-12-12T06:15:16.930Z,-3.58
2022-12-12T06:16:16.443Z,-3.58
2022-12-12T06:17:17.029Z,-3.60
2022-12-12T06:18:16.515Z,-3.63
2022-12-12T06:19:17.005Z,-3.65
2022-12-12T06:20:16.483Z,-3.65
2022-12-12T06:21:16.962Z,-3.68
2022-12-12T06:22:17.094Z,-3.70
2022-12-12T06:23:16.587Z,-3.72
2022-12-12T06:24:17.058Z,-3.72
2022-12-12T06:25:16.543Z,-3.75
2022-12-12T06:26:17.024Z,-3.78
2022-12-12T06:27:16.546Z,-3.77
2022-12-12T06:28:17.013Z,-3.80
2022-12-12T06:29:16.500Z,-3.82
2022-12-12T06:30:17.030Z,-3.77
2022-12-12T06:31:16.629Z,-3.81
2022-12-12T06:32:16.892Z,-3.77
2022-12-12T06:33:16.379Z,-3.81
2022-12-12T06:34:16.863Z,-3.82
2022-12-12T06:35:16.432Z,-3.80
2022-12-12T06:36:16.979Z,-3.80
2022-12-12T06:37:17.454Z,-3.81
2022-12-12T06:38:17.109Z,-3.80
2022-12-12T06:39:16.620Z,-3.85
2022-12-12T06:40:17.120Z,-3.92
2022-12-12T06:41:16.589Z,-3.89
2022-12-12T06:42:16.592Z,-3.89
2022-12-12T06:43:17.078Z,-3.88
2022-12-12T06:44:16.547Z,-3.85
2022-12-12T06:45:17.053Z,-3.87
2022-12-12T06:46:16.605Z,-3.89
2022-12-12T06:47:17.285Z,-3.91
2022-12-12T06:48:16.792Z,-3.92
2022-12-12T06:49:17.339Z,-3.95
2022-12-12T06:50:21.980Z,-3.97
2022-12-12T06:51:16.411Z,-3.95
2022-12-12T06:52:16.313Z,-3.98
2022-12-12T06:53:16.825Z,-3.97
2022-12-12T06:54:17.283Z,-3.98
2022-12-12T06:55:16.756Z,-3.97
2022-12-12T06:56:17.239Z,-3.85
2022-12-12T06:57:16.706Z,-3.85
2022-12-12T06:58:17.223Z,-3.85
2022-12-12T06:59:16.743Z,-3.94
2022-12-12T07:00:17.256Z,-3.95
2022-12-12T07:01:16.748Z,-3.99
2022-12-12T07:02:16.796Z,-3.99
2022-12-12T07:03:16.438Z,-4.05
2022-12-12T07:04:17.068Z,-4.12
2022-12-12T07:05:16.549Z,-4.15
2022-12-12T07:06:17.026Z,-4.12
2022-12-12T07:07:16.487Z,-4.01
2022-12-12T07:08:17.052Z,-4.01
2022-12-12T07:09:16.684Z,-3.99
2022-12-12T07:10:21.143Z,-3.99
2022-12-12T07:11:17.013Z,-3.97
2022-12-12T07:12:16.450Z,-3.98
2022-12-12T07:13:16.973Z,-3.98
2022-12-12T07:14:16.489Z,-3.94
2022-12-12T07:15:16.958Z,-3.89
2022-12-12T07:16:16.523Z,-3.84
2022-12-12T07:17:17.106Z,-3.85
2022-12-12T07:18:16.585Z,-3.87
2022-12-12T07:19:17.089Z,-3.89
2022-12-12T07:20:16.598Z,-3.85
2022-12-12T07:21:17.071Z,-3.84
2022-12-12T07:22:17.234Z,-3.85
2022-12-12T07:23:16.737Z,-3.85
2022-12-12T07:24:17.206Z,-3.87
2022-12-12T07:25:16.696Z,-3.89
2022-12-12T07:26:17.203Z,-3.94
2022-12-12T07:27:21.443Z,-3.89
2022-12-12T07:28:16.434Z,-3.80
2022-12-12T07:29:16.943Z,-3.84
2022-12-12T07:30:16.453Z,-3.97
2022-12-12T07:31:17.073Z,-3.99
2022-12-12T07:32:16.606Z,-3.92
2022-12-12T07:33:17.114Z,-3.88
2022-12-12T07:34:16.620Z,-3.87
2022-12-12T07:35:17.116Z,-3.81
2022-12-12T07:36:16.603Z,-5.49
2022-12-12T07:37:17.102Z,-5.37
2022-12-12T07:38:16.599Z,-5.40
2022-12-12T07:39:20.560Z,-5.37
2022-12-12T07:40:16.642Z,-3.88
2022-12-12T07:41:17.150Z,-3.85
2022-12-12T07:42:16.949Z,-3.91
2022-12-12T07:43:16.415Z,-3.91
2022-12-12T07:44:16.915Z,-3.94
2022-12-12T07:45:18.388Z,-3.88
2022-12-12T07:46:16.431Z,-3.89
2022-12-12T07:47:17.131Z,-3.91
2022-12-12T07:48:16.627Z,-3.89
2022-12-12T07:49:17.114Z,-3.88
2022-12-12T07:50:16.631Z,-3.91
2022-12-12T07:51:17.115Z,-3.89
2022-12-12T07:52:17.032Z,-3.94
2022-12-12T07:53:16.537Z,-3.91
2022-12-12T07:54:17.018Z,-3.91
2022-12-12T07:55:16.489Z,-3.85
2022-12-12T07:56:17.031Z,-5.44
2022-12-12T07:57:16.486Z,-5.46
2022-12-12T07:58:16.960Z,-3.81
2022-12-12T07:59:16.456Z,-3.81
2022-12-12T08:00:16.939Z,-3.78
2022-12-12T08:01:16.440Z,-3.78
2022-12-12T08:02:16.468Z,-3.77
2022-12-12T08:03:17.185Z,-3.77
2022-12-12T08:04:16.662Z,-3.77
2022-12-12T08:05:17.374Z,-3.84
2022-12-12T08:06:17.274Z,-3.80
2022-12-12T08:07:16.768Z,-3.71
2022-12-12T08:08:17.279Z,-3.72
2022-12-12T08:09:16.851Z,-3.71
2022-12-12T08:10:16.319Z,-3.72
2022-12-12T08:11:16.816Z,-3.78
2022-12-12T08:12:16.848Z,-5.70
2022-12-12T08:13:16.382Z,-5.81
2022-12-12T08:14:16.892Z,-5.82
2022-12-12T08:15:16.434Z,-3.67
2022-12-12T08:16:17.060Z,-3.70
2022-12-12T08:17:16.750Z,-3.64
2022-12-12T08:18:17.268Z,-3.67
2022-12-12T08:19:16.783Z,-3.68
2022-12-12T08:20:17.282Z,-3.67
2022-12-12T08:21:23.097Z,-3.65
2022-12-12T08:22:16.603Z,-3.55
2022-12-12T08:23:17.073Z,-3.48
2022-12-12T08:24:16.547Z,-3.50
2022-12-12T08:25:17.087Z,-3.63
2022-12-12T08:26:16.576Z,-3.63
2022-12-12T08:27:17.031Z,-5.53
2022-12-12T08:28:16.559Z,-5.61
2022-12-12T08:29:17.050Z,-5.57
2022-12-12T08:30:16.539Z,-5.57
2022-12-12T08:31:17.114Z,-5.59
2022-12-12T08:32:16.878Z,-5.66
2022-12-12T08:33:16.378Z,-5.70
2022-12-12T08:34:16.871Z,-3.37
2022-12-12T08:35:16.503Z,-3.32
2022-12-12T08:36:17.082Z,-3.33
2022-12-12T08:37:16.558Z,-3.30
2022-12-12T08:38:17.026Z,-3.30
2022-12-12T08:39:16.523Z,-3.23
2022-12-12T08:40:17.023Z,-3.22
2022-12-12T08:41:16.517Z,-3.20
2022-12-12T08:42:16.452Z,-3.13
2022-12-12T08:43:16.920Z,-3.07
2022-12-12T08:44:16.426Z,-3.07
2022-12-12T08:45:16.936Z,-3.07
2022-12-12T08:46:18.003Z,-5.61
2022-12-12T08:47:17.186Z,-5.61
2022-12-12T08:48:16.697Z,-5.61
2022-12-12T08:49:17.179Z,-2.98
2022-12-12T08:50:16.679Z,-2.91
2022-12-12T08:51:17.160Z,-2.78
2022-12-12T08:52:16.813Z,-2.74
2022-12-12T08:53:17.374Z,-2.70
2022-12-12T08:54:16.860Z,-2.62
2022-12-12T08:55:16.412Z,-2.60
2022-12-12T08:56:16.903Z,-2.62
2022-12-12T08:57:17.193Z,-2.59
2022-12-12T08:58:16.923Z,-2.59
2022-12-12T08:59:16.423Z,-2.57
2022-12-12T09:00:16.915Z,-2.57
2022-12-12T09:01:16.495Z,-2.54
2022-12-12T09:02:16.897Z,-2.46
2022-12-12T09:03:16.571Z,-2.38
2022-12-12T09:04:17.049Z,-2.36
2022-12-12T09:05:16.564Z,-2.25
2022-12-12T09:06:17.079Z,-2.28
2022-12-12T09:07:16.559Z,-2.26
2022-12-12T09:08:17.065Z,-2.28
2022-12-12T09:09:16.688Z,-2.32
2022-12-12T09:10:17.167Z,-2.31
2022-12-12T09:11:16.678Z,-2.32
2022-12-12T09:12:16.339Z,-2.26
2022-12-12T09:13:16.819Z,-2.09
2022-12-12T09:14:16.493Z,-2.09
2022-12-12T09:15:17.014Z,-1.94
2022-12-12T09:16:16.573Z,-1.79
2022-12-12T09:17:17.118Z,-1.72
2022-12-12T09:18:16.574Z,-1.79
2022-12-12T09:19:17.066Z,-1.79
2022-12-12T09:20:16.562Z,-1.83
2022-12-12T09:21:17.058Z,-1.95
2022-12-12T09:22:16.792Z,-2.00
2022-12-12T09:23:17.291Z,-2.07
2022-12-12T09:24:16.767Z,-2.07
2022-12-12T09:25:17.257Z,-2.09
2022-12-12T09:26:16.724Z,-2.14
2022-12-12T09:27:17.265Z,-2.11
2022-12-12T09:28:16.771Z,-2.09
2022-12-12T09:29:17.278Z,-2.07
2022-12-12T09:30:16.794Z,-2.00
2022-12-12T09:31:17.371Z,-2.00
2022-12-12T09:32:21.279Z,-1.98
2022-12-12T09:33:16.423Z,-1.95
2022-12-12T09:34:16.921Z,-1.97
2022-12-12T09:35:16.529Z,-1.97
2022-12-12T09:36:17.141Z,-2.05
2022-12-12T09:37:16.622Z,-1.97
2022-12-12T09:38:17.108Z,-1.94
2022-12-12T09:39:16.638Z,-1.97
2022-12-12T09:40:17.135Z,-1.95
2022-12-12T09:41:16.608Z,-1.92
2022-12-12T09:42:16.544Z,-1.94
2022-12-12T09:43:17.022Z,-1.88
2022-12-12T09:44:16.499Z,-1.80
2022-12-12T09:45:17.002Z,-1.83
2022-12-12T09:46:16.508Z,-1.80
2022-12-12T09:47:17.133Z,-1.77
2022-12-12T09:48:16.617Z,-1.70
2022-12-12T09:49:17.081Z,-1.76
2022-12-12T09:50:16.625Z,-1.76
2022-12-12T09:51:17.191Z,-1.74
2022-12-12T09:52:16.781Z,-1.79
2022-12-12T09:53:17.263Z,-1.80
2022-12-12T09:54:16.780Z,-1.74
2022-12-12T09:55:17.263Z,-1.73
2022-12-12T09:56:16.738Z,-1.73
2022-12-12T09:57:17.259Z,-1.77
2022-12-12T09:58:16.780Z,-1.77
2022-12-12T09:59:17.267Z,-1.72
2022-12-12T10:00:17.015Z,-1.77
2022-12-12T10:01:16.970Z,-1.87
2022-12-12T10:02:16.621Z,-1.90
2022-12-12T10:03:17.203Z,-1.91
2022-12-12T10:04:16.683Z,-1.88
2022-12-12T10:05:17.190Z,-1.90
2022-12-12T10:07:16.925Z,-1.80
2022-12-12T10:08:16.421Z,-1.86
2022-12-12T10:09:16.993Z,-1.87
2022-12-12T10:10:16.537Z,-1.74
2022-12-12T10:11:17.209Z,-1.67
2022-12-12T10:12:16.709Z,-1.64
2022-12-12T10:13:17.256Z,-1.72
2022-12-12T10:14:16.725Z,-1.63
2022-12-12T10:15:17.224Z,-1.66
2022-12-12T10:16:16.734Z,-1.66
2022-12-12T10:17:16.325Z,-1.64
2022-12-12T10:18:16.801Z,-1.66
2022-12-12T10:19:17.263Z,-1.64
2022-12-12T10:20:16.859Z,-1.69
2022-12-12T10:21:16.433Z,-1.74
2022-12-12T10:22:17.279Z,-1.76
2022-12-12T10:23:16.802Z,-1.79
2022-12-12T10:24:17.301Z,-1.66
2022-12-12T10:25:16.787Z,-1.63
2022-12-12T10:26:17.290Z,-1.60
2022-12-12T10:27:16.798Z,-1.60
2022-12-12T10:28:17.332Z,-1.79
2022-12-12T10:29:16.779Z,-1.84
2022-12-12T10:30:17.296Z,-1.69
2022-12-12T10:31:16.832Z,-1.60
2022-12-12T10:32:16.761Z,-1.53
2022-12-12T10:33:17.237Z,-1.45
2022-12-12T10:34:16.737Z,-1.39
2022-12-12T10:35:20.161Z,-1.32
2022-12-12T10:36:17.271Z,-1.34
2022-12-12T10:37:16.765Z,-1.39
2022-12-12T10:38:17.250Z,-1.58
2022-12-12T10:39:16.762Z,-1.59
2022-12-12T10:40:17.246Z,-1.58
2022-12-12T10:41:16.720Z,-1.49
2022-12-12T10:42:16.518Z,-1.49
2022-12-12T10:43:16.997Z,-1.46
2022-12-12T10:44:16.512Z,-1.29
2022-12-12T10:45:17.008Z,-1.21
2022-12-12T10:46:16.604Z,-1.16
2022-12-12T10:47:16.432Z,-1.14
2022-12-12T10:48:16.972Z,-1.07
2022-12-12T10:49:16.451Z,-1.04
2022-12-12T10:50:16.960Z,-1.21
2022-12-12T10:51:16.427Z,-1.07
2022-12-12T10:52:16.441Z,-0.98
2022-12-12T10:53:16.937Z,-0.83
2022-12-12T10:54:16.402Z,-0.68
2022-12-12T10:55:16.913Z,-0.61
2022-12-12T10:56:16.408Z,-0.51
2022-12-12T10:57:20.049Z,-0.41
2022-12-12T10:58:17.241Z,-1.52
2022-12-12T10:59:16.727Z,-1.62
2022-12-12T11:00:17.291Z,-1.77
2022-12-12T11:01:17.015Z,-1.68
2022-12-12T11:02:16.947Z,-1.66
2022-12-12T11:03:16.793Z,-1.52
2022-12-12T11:04:16.347Z,-1.38
2022-12-12T11:05:16.921Z,-1.35
2022-12-12T11:06:16.568Z,-1.47
2022-12-12T11:07:17.036Z,-1.21
2022-12-12T11:08:16.634Z,-1.29
2022-12-12T11:09:17.296Z,-1.33
2022-12-12T11:10:16.777Z,-1.28
2022-12-12T11:11:17.257Z,-1.33
2022-12-12T11:12:17.242Z,-1.29
2022-12-12T11:13:16.707Z,-1.18
2022-12-12T11:14:17.208Z,-1.11
2022-12-12T11:15:16.724Z,-1.00
2022-12-12T11:16:17.264Z,-1.04
2022-12-12T11:17:16.835Z,-0.98
2022-12-12T11:18:16.335Z,-1.09
2022-12-12T11:19:16.787Z,-1.04
2022-12-12T11:20:17.351Z,-1.14
2022-12-12T11:21:16.919Z,-1.21
2022-12-12T11:22:16.443Z,-1.09
2022-12-12T11:23:18.284Z,-1.04
2022-12-12T11:24:16.966Z,-1.00
2022-12-12T11:25:16.446Z,-1.12
2022-12-12T11:26:16.934Z,-1.15
2022-12-12T11:27:16.433Z,-1.09
2022-12-12T11:28:16.944Z,-1.05
2022-12-12T11:29:16.424Z,-1.45
2022-12-12T11:30:16.950Z,-1.50
2022-12-12T11:31:16.688Z,-1.46
2022-12-12T11:32:17.292Z,-1.35
2022-12-12T11:33:16.803Z,-1.24
2022-12-12T11:34:17.270Z,-1.39
2022-12-12T11:35:16.755Z,-1.47
2022-12-12T11:36:17.247Z,-1.45
2022-12-12T11:37:16.740Z,-1.38
2022-12-12T11:38:17.282Z,-1.29
2022-12-12T11:39:16.777Z,-1.22
2022-12-12T11:40:17.268Z,-1.17
2022-12-12T11:41:16.752Z,-1.18
2022-12-12T11:42:17.190Z,-1.32
2022-12-12T11:43:16.672Z,-1.36
2022-12-12T11:44:20.168Z,-1.26
2022-12-12T11:45:16.755Z,-1.19
2022-12-12T11:46:17.362Z,-1.09
2022-12-12T11:47:16.931Z,-1.25
2022-12-12T11:48:16.413Z,-1.18
2022-12-12T11:49:16.936Z,-1.01
2022-12-12T11:50:16.433Z,-0.92
2022-12-12T11:51:16.911Z,-1.08
2022-12-12T11:52:16.570Z,-1.08
2022-12-12T11:53:17.058Z,-1.09
2022-12-12T11:54:16.547Z,-1.08
2022-12-12T11:55:17.014Z,-1.09
2022-12-12T11:56:16.483Z,-1.05
2022-12-12T11:57:16.950Z,-1.11
2022-12-12T11:58:16.459Z,-1.15
2022-12-12T11:59:16.979Z,-1.11
2022-12-12T12:00:16.515Z,-1.11
2022-12-12T12:01:17.148Z,-1.14
2022-12-12T12:02:16.742Z,-1.14
2022-12-12T12:03:17.321Z,-1.21
2022-12-12T12:04:16.991Z,-1.28
2022-12-12T12:05:16.645Z,-1.24
2022-12-12T12:06:17.214Z,-1.15
2022-12-12T12:07:16.740Z,-1.25
2022-12-12T12:08:17.242Z,-1.33
2022-12-12T12:09:16.929Z,-1.32
2022-12-12T12:10:19.620Z,-1.29
2022-12-12T12:11:16.899Z,-1.33
2022-12-12T12:12:16.842Z,-1.39
2022-12-12T12:13:16.355Z,-1.35
2022-12-12T12:14:16.871Z,-1.21
2022-12-12T12:15:16.453Z,-1.26
2022-12-12T12:16:17.065Z,-1.28
2022-12-12T12:17:16.684Z,-1.31
2022-12-12T12:18:17.226Z,-1.32
2022-12-12T12:19:16.720Z,-1.33
2022-12-12T12:20:17.240Z,-1.36
2022-12-12T12:21:16.730Z,-1.21
2022-12-12T12:22:17.285Z,-1.32
2022-12-12T12:23:16.762Z,-1.36
2022-12-12T12:24:17.224Z,-1.49
2022-12-12T12:25:16.777Z,-1.43
2022-12-12T12:26:17.298Z,-1.38
2022-12-12T12:27:16.784Z,-1.33
2022-12-12T12:28:17.284Z,-1.62
2022-12-12T12:29:16.805Z,-1.56
2022-12-12T12:30:17.279Z,-1.55
2022-12-12T12:31:16.810Z,-1.67
2022-12-12T12:32:17.175Z,-1.66
2022-12-12T12:33:16.658Z,-1.64
2022-12-12T12:34:17.144Z,-1.60
2022-12-12T12:35:16.652Z,-1.68
2022-12-12T12:36:21.017Z,-1.74
2022-12-12T12:37:17.035Z,-1.76
2022-12-12T12:38:16.525Z,-1.81
2022-12-12T12:39:17.019Z,-1.81
2022-12-12T12:40:16.516Z,-1.81
2022-12-12T12:41:17.009Z,-0.79
2022-12-12T12:42:16.982Z,-0.82
2022-12-12T12:43:16.487Z,-0.82
2022-12-12T12:44:17.005Z,-0.79
2022-12-12T12:45:16.719Z,-0.79
2022-12-12T12:46:17.346Z,-0.79
2022-12-12T12:47:16.948Z,-0.79
2022-12-12T12:48:16.443Z,-0.77
2022-12-12T12:49:16.949Z,-0.83
2022-12-12T12:50:16.689Z,-0.84
2022-12-12T12:51:16.784Z,-0.98
2022-12-12T12:52:16.686Z,-0.97
2022-12-12T12:53:17.219Z,-0.96